sensor_id;sensor_type;location;lat;lon;timestamp;P1;P2;P0
46573;PMS5003;32299;53.366;-1.544;2022-09-14T00:01:17;33;21;
46573;PMS5003;32299;53.366;-1.544;2022-09-14T00:03:46;31;19;
46573;PMS5003;32299;53.366;-1.544;2022-09-14T00:06:17;18;15;
46573;PMS5003;32299;53.366;-1.544;2022-09-14T00:08:48;19;18;
46573;PMS5003;32299;53.366;-1.544;2022-09-14T00:11:16;30;18;
46573;PMS5003;32299;53.366;-1.544;2022-09-14T00:13:43;31;19;
46573;PMS5003;32299;53.366;-1.544;2022-09-14T00:16:12;19;19;
46573;PMS5003;32299;53.366;-1.544;2022-09-14T00:18:42;22;18;
46573;PMS5003;32299;53.366;-1.544;2022-09-14T00:21:11;30;19;
46573;PMS5003;32299;53.366;-1.544;2022-09-14T00:23:38;21;21;
46573;PMS5003;32299;53.366;-1.544;2022-09-14T00:26:07;28;24;
46573;PMS5003;32299;53.366;-1.544;2022-09-14T00:28:37;34;18;
46573;PMS5003;32299;53.366;-1.544;2022-09-14T00:31:06;25;18;
46573;PMS5003;32299;53.366;-1.544;2022-09-14T00:33:33;26;24;
46573;PMS5003;32299;53.366;-1.544;2022-09-14T00:36:05;30;18;
46573;PMS5003;32299;53.366;-1.544;2022-09-14T00:38:33;19;18;
46573;PMS5003;32299;53.366;-1.544;2022-09-14T00:41:02;28;20;
46573;PMS5003;32299;53.366;-1.544;2022-09-14T00:43:31;26;21;
46573;PMS5003;32299;53.366;-1.544;2022-09-14T00:45:59;22;21;
46573;PMS5003;32299;53.366;-1.544;2022-09-14T00:48:31;17;16;
46573;PMS5003;32299;53.366;-1.544;2022-09-14T00:50:58;22;18;
46573;PMS5003;32299;53.366;-1.544;2022-09-14T00:53:25;22;18;
46573;PMS5003;32299;53.366;-1.544;2022-09-14T00:55:53;21;17;
46573;PMS5003;32299;53.366;-1.544;2022-09-14T00:58:21;19;14;
46573;PMS5003;32299;53.366;-1.544;2022-09-14T01:00:49;26;14;
46573;PMS5003;32299;53.366;-1.544;2022-09-14T01:03:16;13;12;
46573;PMS5003;32299;53.366;-1.544;2022-09-14T01:05:47;16;16;
46573;PMS5003;32299;53.366;-1.544;2022-09-14T01:08:24;19;17;
46573;PMS5003;32299;53.366;-1.544;2022-09-14T01:11:10;16;15;
46573;PMS5003;32299;53.366;-1.544;2022-09-14T01:13:50;16;14;
46573;PMS5003;32299;53.366;-1.544;2022-09-14T01:16:28;16;13;
46573;PMS5003;32299;53.366;-1.544;2022-09-14T01:18:59;14;13;
46573;PMS5003;32299;53.366;-1.544;2022-09-14T01:21:33;14;14;
46573;PMS5003;32299;53.366;-1.544;2022-09-14T01:24:03;14;13;
46573;PMS5003;32299;53.366;-1.544;2022-09-14T01:26:42;19;14;
46573;PMS5003;32299;53.366;-1.544;2022-09-14T01:29:24;18;16;
46573;PMS5003;32299;53.366;-1.544;2022-09-14T01:31:59;15;15;
46573;PMS5003;32299;53.366;-1.544;2022-09-14T01:34:31;30;17;
46573;PMS5003;32299;53.366;-1.544;2022-09-14T01:37:05;29;23;
46573;PMS5003;32299;53.366;-1.544;2022-09-14T01:39:37;22;17;
46573;PMS5003;32299;53.366;-1.544;2022-09-14T01:42:08;36;26;
46573;PMS5003;32299;53.366;-1.544;2022-09-14T01:44:38;23;21;
46573;PMS5003;32299;53.366;-1.544;2022-09-14T01:47:09;27;22;
46573;PMS5003;32299;53.366;-1.544;2022-09-14T01:49:41;36;24;
46573;PMS5003;32299;53.366;-1.544;2022-09-14T01:52:14;30;25;
46573;PMS5003;32299;53.366;-1.544;2022-09-14T01:54:47;25;22;
46573;PMS5003;32299;53.366;-1.544;2022-09-14T01:57:18;40;26;
46573;PMS5003;32299;53.366;-1.544;2022-09-14T01:59:50;41;28;
46573;PMS5003;32299;53.366;-1.544;2022-09-14T02:02:21;41;27;
46573;PMS5003;32299;53.366;-1.544;2022-09-14T02:04:53;25;25;
46573;PMS5003;32299;53.366;-1.544;2022-09-14T02:07:28;25;24;
46573;PMS5003;32299;53.366;-1.544;2022-09-14T02:09:56;35;24;
46573;PMS5003;32299;53.366;-1.544;2022-09-14T02:12:23;36;26;
46573;PMS5003;32299;53.366;-1.544;2022-09-14T02:14:52;33;24;
46573;PMS5003;32299;53.366;-1.544;2022-09-14T02:17:20;32;25;
46573;PMS5003;32299;53.366;-1.544;2022-09-14T02:19:49;38;24;
46573;PMS5003;32299;53.366;-1.544;2022-09-14T02:22:20;32;25;
46573;PMS5003;32299;53.366;-1.544;2022-09-14T02:24:48;32;23;
46573;PMS5003;32299;53.366;-1.544;2022-09-14T02:27:15;33;25;
46573;PMS5003;32299;53.366;-1.544;2022-09-14T02:29:42;26;23;
46573;PMS5003;32299;53.366;-1.544;2022-09-14T02:32:19;30;22;
46573;PMS5003;32299;53.366;-1.544;2022-09-14T02:34:55;25;22;
46573;PMS5003;32299;53.366;-1.544;2022-09-14T02:37:31;21;21;
46573;PMS5003;32299;53.366;-1.544;2022-09-14T02:40:07;22;19;
46573;PMS5003;32299;53.366;-1.544;2022-09-14T02:42:45;28;22;
46573;PMS5003;32299;53.366;-1.544;2022-09-14T02:45:23;23;20;
46573;PMS5003;32299;53.366;-1.544;2022-09-14T02:47:59;38;22;
46573;PMS5003;32299;53.366;-1.544;2022-09-14T02:50:33;34;18;
46573;PMS5003;32299;53.366;-1.544;2022-09-14T02:53:07;34;24;
46573;PMS5003;32299;53.366;-1.544;2022-09-14T02:55:40;26;22;
46573;PMS5003;32299;53.366;-1.544;2022-09-14T02:58:12;38;24;
46573;PMS5003;32299;53.366;-1.544;2022-09-14T03:00:42;41;24;
46573;PMS5003;32299;53.366;-1.544;2022-09-14T03:03:12;34;26;
46573;PMS5003;32299;53.366;-1.544;2022-09-14T03:05:41;37;23;
46573;PMS5003;32299;53.366;-1.544;2022-09-14T03:08:09;25;24;
46573;PMS5003;32299;53.366;-1.544;2022-09-14T03:10:36;35;21;
46573;PMS5003;32299;53.366;-1.544;2022-09-14T03:13:04;39;23;
46573;PMS5003;32299;53.366;-1.544;2022-09-14T03:15:31;34;19;
46573;PMS5003;32299;53.366;-1.544;2022-09-14T03:17:58;20;16;
46573;PMS5003;32299;53.366;-1.544;2022-09-14T03:20:27;31;18;
46573;PMS5003;32299;53.366;-1.544;2022-09-14T03:22:57;24;20;
46573;PMS5003;32299;53.366;-1.544;2022-09-14T03:25:25;23;21;
46573;PMS5003;32299;53.366;-1.544;2022-09-14T03:27:53;26;24;
46573;PMS5003;32299;53.366;-1.544;2022-09-14T03:30:22;36;22;
46573;PMS5003;32299;53.366;-1.544;2022-09-14T03:32:50;26;20;
46573;PMS5003;32299;53.366;-1.544;2022-09-14T03:35:18;25;16;
46573;PMS5003;32299;53.366;-1.544;2022-09-14T03:37:45;22;19;
46573;PMS5003;32299;53.366;-1.544;2022-09-14T03:40:13;21;17;
46573;PMS5003;32299;53.366;-1.544;2022-09-14T03:42:42;29;19;
46573;PMS5003;32299;53.366;-1.544;2022-09-14T03:45:10;18;15;
46573;PMS5003;32299;53.366;-1.544;2022-09-14T03:47:38;19;15;
46573;PMS5003;32299;53.366;-1.544;2022-09-14T03:50:06;19;14;
46573;PMS5003;32299;53.366;-1.544;2022-09-14T03:52:35;14;11;
46573;PMS5003;32299;53.366;-1.544;2022-09-14T03:55:04;16;15;
46573;PMS5003;32299;53.366;-1.544;2022-09-14T03:57:33;20;14;
46573;PMS5003;32299;53.366;-1.544;2022-09-14T04:00:01;28;15;
46573;PMS5003;32299;53.366;-1.544;2022-09-14T04:02:30;17;12;
46573;PMS5003;32299;53.366;-1.544;2022-09-14T04:04:57;14;14;
46573;PMS5003;32299;53.366;-1.544;2022-09-14T04:07:25;29;15;
46573;PMS5003;32299;53.366;-1.544;2022-09-14T04:09:52;19;14;
46573;PMS5003;32299;53.366;-1.544;2022-09-14T04:12:19;21;19;
46573;PMS5003;32299;53.366;-1.544;2022-09-14T04:14:46;16;13;
46573;PMS5003;32299;53.366;-1.544;2022-09-14T04:17:13;26;18;
46573;PMS5003;32299;53.366;-1.544;2022-09-14T04:19:41;31;15;
46573;PMS5003;32299;53.366;-1.544;2022-09-14T04:22:08;22;17;
46573;PMS5003;32299;53.366;-1.544;2022-09-14T04:24:35;17;17;
46573;PMS5003;32299;53.366;-1.544;2022-09-14T04:27:02;24;21;
46573;PMS5003;32299;53.366;-1.544;2022-09-14T04:29:31;28;18;
46573;PMS5003;32299;53.366;-1.544;2022-09-14T04:31:58;15;14;
46573;PMS5003;32299;53.366;-1.544;2022-09-14T04:34:26;18;14;
46573;PMS5003;32299;53.366;-1.544;2022-09-14T04:36:53;13;12;
46573;PMS5003;32299;53.366;-1.544;2022-09-14T04:39:20;19;13;
46573;PMS5003;32299;53.366;-1.544;2022-09-14T04:41:47;28;16;
46573;PMS5003;32299;53.366;-1.544;2022-09-14T04:44:15;27;20;
46573;PMS5003;32299;53.366;-1.544;2022-09-14T04:46:42;25;14;
46573;PMS5003;32299;53.366;-1.544;2022-09-14T04:49:09;14;14;
46573;PMS5003;32299;53.366;-1.544;2022-09-14T04:51:36;18;13;
46573;PMS5003;32299;53.366;-1.544;2022-09-14T04:54:04;20;13;
46573;PMS5003;32299;53.366;-1.544;2022-09-14T04:56:32;16;16;
46573;PMS5003;32299;53.366;-1.544;2022-09-14T04:59:01;13;12;
46573;PMS5003;32299;53.366;-1.544;2022-09-14T05:01:30;14;12;
46573;PMS5003;32299;53.366;-1.544;2022-09-14T05:03:59;13;13;
46573;PMS5003;32299;53.366;-1.544;2022-09-14T05:06:27;16;9;
46573;PMS5003;32299;53.366;-1.544;2022-09-14T05:08:56;12;11;
46573;PMS5003;32299;53.366;-1.544;2022-09-14T05:11:24;12;10;
46573;PMS5003;32299;53.366;-1.544;2022-09-14T05:13:54;11;8;
46573;PMS5003;32299;53.366;-1.544;2022-09-14T05:16:22;9;9;
46573;PMS5003;32299;53.366;-1.544;2022-09-14T05:18:52;6;6;
46573;PMS5003;32299;53.366;-1.544;2022-09-14T05:21:20;6;6;
46573;PMS5003;32299;53.366;-1.544;2022-09-14T05:23:55;7;7;
46573;PMS5003;32299;53.366;-1.544;2022-09-14T05:26:23;7;6;
46573;PMS5003;32299;53.366;-1.544;2022-09-14T05:28:52;7;6;
46573;PMS5003;32299;53.366;-1.544;2022-09-14T05:31:21;9;7;
46573;PMS5003;32299;53.366;-1.544;2022-09-14T05:33:49;5;4;
46573;PMS5003;32299;53.366;-1.544;2022-09-14T05:36:17;4;4;
46573;PMS5003;32299;53.366;-1.544;2022-09-14T05:38:45;7;5;
46573;PMS5003;32299;53.366;-1.544;2022-09-14T05:41:17;7;6;
46573;PMS5003;32299;53.366;-1.544;2022-09-14T05:43:44;5;3;
46573;PMS5003;32299;53.366;-1.544;2022-09-14T05:46:13;4;4;
46573;PMS5003;32299;53.366;-1.544;2022-09-14T05:48:41;3;3;
46573;PMS5003;32299;53.366;-1.544;2022-09-14T05:51:09;11;8;
46573;PMS5003;32299;53.366;-1.544;2022-09-14T05:53:37;5;4;
46573;PMS5003;32299;53.366;-1.544;2022-09-14T05:56:06;5;3;
46573;PMS5003;32299;53.366;-1.544;2022-09-14T05:58:35;5;3;
46573;PMS5003;32299;53.366;-1.544;2022-09-14T06:01:06;6;4;
46573;PMS5003;32299;53.366;-1.544;2022-09-14T06:03:35;4;4;
46573;PMS5003;32299;53.366;-1.544;2022-09-14T06:06:03;5;5;
46573;PMS5003;32299;53.366;-1.544;2022-09-14T06:08:32;5;5;
46573;PMS5003;32299;53.366;-1.544;2022-09-14T06:11:03;5;4;
46573;PMS5003;32299;53.366;-1.544;2022-09-14T06:13:31;4;2;
46573;PMS5003;32299;53.366;-1.544;2022-09-14T06:16:00;6;4;
46573;PMS5003;32299;53.366;-1.544;2022-09-14T06:18:29;5;4;
46573;PMS5003;32299;53.366;-1.544;2022-09-14T06:20:57;8;5;
46573;PMS5003;32299;53.366;-1.544;2022-09-14T06:23:25;5;5;
46573;PMS5003;32299;53.366;-1.544;2022-09-14T06:25:53;8;4;
46573;PMS5003;32299;53.366;-1.544;2022-09-14T06:28:21;4;4;
46573;PMS5003;32299;53.366;-1.544;2022-09-14T06:30:49;4;4;
46573;PMS5003;32299;53.366;-1.544;2022-09-14T06:33:17;2;2;
46573;PMS5003;32299;53.366;-1.544;2022-09-14T06:35:52;3;2;
46573;PMS5003;32299;53.366;-1.544;2022-09-14T06:38:21;7;5;
46573;PMS5003;32299;53.366;-1.544;2022-09-14T06:40:50;1;1;
46573;PMS5003;32299;53.366;-1.544;2022-09-14T06:43:18;8;4;
46573;PMS5003;32299;53.366;-1.544;2022-09-14T06:45:53;5;4;
46573;PMS5003;32299;53.366;-1.544;2022-09-14T06:48:21;7;4;
46573;PMS5003;32299;53.366;-1.544;2022-09-14T06:50:48;8;3;
46573;PMS5003;32299;53.366;-1.544;2022-09-14T06:53:16;5;4;
46573;PMS5003;32299;53.366;-1.544;2022-09-14T06:55:43;7;4;
46573;PMS5003;32299;53.366;-1.544;2022-09-14T06:58:10;3;3;
46573;PMS5003;32299;53.366;-1.544;2022-09-14T07:00:37;7;6;
46573;PMS5003;32299;53.366;-1.544;2022-09-14T07:03:05;7;6;
46573;PMS5003;32299;53.366;-1.544;2022-09-14T07:05:31;6;6;
46573;PMS5003;32299;53.366;-1.544;2022-09-14T07:07:58;6;5;
46573;PMS5003;32299;53.366;-1.544;2022-09-14T07:10:25;4;4;
46573;PMS5003;32299;53.366;-1.544;2022-09-14T07:12:54;5;5;
46573;PMS5003;32299;53.366;-1.544;2022-09-14T07:15:21;5;5;
46573;PMS5003;32299;53.366;-1.544;2022-09-14T07:17:48;4;4;
46573;PMS5003;32299;53.366;-1.544;2022-09-14T07:20:15;9;8;
46573;PMS5003;32299;53.366;-1.544;2022-09-14T07:22:42;7;6;
46573;PMS5003;32299;53.366;-1.544;2022-09-14T07:25:09;18;6;
46573;PMS5003;32299;53.366;-1.544;2022-09-14T07:27:37;7;7;
46573;PMS5003;32299;53.366;-1.544;2022-09-14T07:30:04;7;7;
46573;PMS5003;32299;53.366;-1.544;2022-09-14T07:32:32;7;7;
46573;PMS5003;32299;53.366;-1.544;2022-09-14T07:35:00;8;7;
46573;PMS5003;32299;53.366;-1.544;2022-09-14T07:37:28;8;8;
46573;PMS5003;32299;53.366;-1.544;2022-09-14T07:39:55;12;7;
46573;PMS5003;32299;53.366;-1.544;2022-09-14T07:42:22;9;8;
46573;PMS5003;32299;53.366;-1.544;2022-09-14T07:44:49;7;7;
46573;PMS5003;32299;53.366;-1.544;2022-09-14T07:47:16;8;8;
46573;PMS5003;32299;53.366;-1.544;2022-09-14T07:49:43;8;8;
46573;PMS5003;32299;53.366;-1.544;2022-09-14T07:52:10;6;6;
46573;PMS5003;32299;53.366;-1.544;2022-09-14T07:54:37;8;8;
46573;PMS5003;32299;53.366;-1.544;2022-09-14T07:57:04;7;7;
46573;PMS5003;32299;53.366;-1.544;2022-09-14T07:59:31;7;7;
46573;PMS5003;32299;53.366;-1.544;2022-09-14T08:01:58;7;6;
46573;PMS5003;32299;53.366;-1.544;2022-09-14T08:04:25;6;6;
46573;PMS5003;32299;53.366;-1.544;2022-09-14T08:06:52;9;7;
46573;PMS5003;32299;53.366;-1.544;2022-09-14T08:09:20;6;5;
46573;PMS5003;32299;53.366;-1.544;2022-09-14T08:11:47;8;8;
46573;PMS5003;32299;53.366;-1.544;2022-09-14T08:14:14;9;9;
46573;PMS5003;32299;53.366;-1.544;2022-09-14T08:16:41;18;10;
46573;PMS5003;32299;53.366;-1.544;2022-09-14T08:19:10;9;9;
46573;PMS5003;32299;53.366;-1.544;2022-09-14T08:21:38;9;9;
46573;PMS5003;32299;53.366;-1.544;2022-09-14T08:24:05;9;9;
46573;PMS5003;32299;53.366;-1.544;2022-09-14T08:26:33;5;5;
46573;PMS5003;32299;53.366;-1.544;2022-09-14T08:29:00;8;7;
46573;PMS5003;32299;53.366;-1.544;2022-09-14T08:31:28;9;7;
46573;PMS5003;32299;53.366;-1.544;2022-09-14T08:33:56;5;5;
46573;PMS5003;32299;53.366;-1.544;2022-09-14T08:36:25;6;6;
46573;PMS5003;32299;53.366;-1.544;2022-09-14T08:38:54;6;6;
46573;PMS5003;32299;53.366;-1.544;2022-09-14T08:41:25;6;5;
46573;PMS5003;32299;53.366;-1.544;2022-09-14T08:43:58;5;5;
46573;PMS5003;32299;53.366;-1.544;2022-09-14T08:46:29;5;4;
46573;PMS5003;32299;53.366;-1.544;2022-09-14T08:49:00;10;6;
46573;PMS5003;32299;53.366;-1.544;2022-09-14T08:51:30;5;5;
46573;PMS5003;32299;53.366;-1.544;2022-09-14T08:53:57;3;3;
46573;PMS5003;32299;53.366;-1.544;2022-09-14T08:56:25;4;4;
46573;PMS5003;32299;53.366;-1.544;2022-09-14T08:59:02;6;6;
46573;PMS5003;32299;53.366;-1.544;2022-09-14T09:01:42;5;3;
46573;PMS5003;32299;53.366;-1.544;2022-09-14T09:04:23;8;6;
46573;PMS5003;32299;53.366;-1.544;2022-09-14T09:07:02;5;5;
46573;PMS5003;32299;53.366;-1.544;2022-09-14T09:09:39;7;6;
46573;PMS5003;32299;53.366;-1.544;2022-09-14T09:12:12;7;4;
46573;PMS5003;32299;53.366;-1.544;2022-09-14T09:14:44;7;6;
46573;PMS5003;32299;53.366;-1.544;2022-09-14T09:17:17;8;7;
46573;PMS5003;32299;53.366;-1.544;2022-09-14T09:19:52;7;7;
46573;PMS5003;32299;53.366;-1.544;2022-09-14T09:22:24;8;7;
46573;PMS5003;32299;53.366;-1.544;2022-09-14T09:24:55;9;7;
46573;PMS5003;32299;53.366;-1.544;2022-09-14T09:27:24;10;10;
46573;PMS5003;32299;53.366;-1.544;2022-09-14T09:29:52;11;10;
46573;PMS5003;32299;53.366;-1.544;2022-09-14T09:32:21;19;10;
46573;PMS5003;32299;53.366;-1.544;2022-09-14T09:34:50;10;10;
46573;PMS5003;32299;53.366;-1.544;2022-09-14T09:37:18;10;9;
46573;PMS5003;32299;53.366;-1.544;2022-09-14T09:39:48;13;11;
46573;PMS5003;32299;53.366;-1.544;2022-09-14T09:42:19;10;10;
46573;PMS5003;32299;53.366;-1.544;2022-09-14T09:44:56;11;11;
46573;PMS5003;32299;53.366;-1.544;2022-09-14T09:47:24;11;11;
46573;PMS5003;32299;53.366;-1.544;2022-09-14T09:49:56;14;14;
46573;PMS5003;32299;53.366;-1.544;2022-09-14T09:52:26;14;12;
46573;PMS5003;32299;53.366;-1.544;2022-09-14T09:54:54;26;13;
46573;PMS5003;32299;53.366;-1.544;2022-09-14T09:57:26;22;15;
46573;PMS5003;32299;53.366;-1.544;2022-09-14T10:00:27;16;13;
46573;PMS5003;32299;53.366;-1.544;2022-09-14T10:02:55;13;11;
46573;PMS5003;32299;53.366;-1.544;2022-09-14T10:05:23;12;12;
46573;PMS5003;32299;53.366;-1.544;2022-09-14T10:07:53;17;10;
46573;PMS5003;32299;53.366;-1.544;2022-09-14T10:10:25;11;11;
46573;PMS5003;32299;53.366;-1.544;2022-09-14T10:13:12;12;9;
46573;PMS5003;32299;53.366;-1.544;2022-09-14T10:15:46;16;8;
46573;PMS5003;32299;53.366;-1.544;2022-09-14T10:18:14;11;10;
46573;PMS5003;32299;53.366;-1.544;2022-09-14T10:20:44;10;8;
46573;PMS5003;32299;53.366;-1.544;2022-09-14T10:23:31;7;7;
46573;PMS5003;32299;53.366;-1.544;2022-09-14T10:26:15;9;8;
46573;PMS5003;32299;53.366;-1.544;2022-09-14T10:28:45;10;9;
46573;PMS5003;32299;53.366;-1.544;2022-09-14T10:31:15;11;10;
46573;PMS5003;32299;53.366;-1.544;2022-09-14T10:33:51;8;8;
46573;PMS5003;32299;53.366;-1.544;2022-09-14T10:36:21;9;8;
46573;PMS5003;32299;53.366;-1.544;2022-09-14T10:38:52;9;8;
46573;PMS5003;32299;53.366;-1.544;2022-09-14T10:41:23;11;8;
46573;PMS5003;32299;53.366;-1.544;2022-09-14T10:44:05;8;7;
46573;PMS5003;32299;53.366;-1.544;2022-09-14T10:46:51;7;7;
46573;PMS5003;32299;53.366;-1.544;2022-09-14T10:49:31;8;4;
46573;PMS5003;32299;53.366;-1.544;2022-09-14T10:52:12;5;5;
46573;PMS5003;32299;53.366;-1.544;2022-09-14T10:55:06;8;5;
46573;PMS5003;32299;53.366;-1.544;2022-09-14T10:57:51;9;8;
46573;PMS5003;32299;53.366;-1.544;2022-09-14T11:00:24;7;7;
46573;PMS5003;32299;53.366;-1.544;2022-09-14T11:03:07;6;6;
46573;PMS5003;32299;53.366;-1.544;2022-09-14T11:05:45;4;4;
46573;PMS5003;32299;53.366;-1.544;2022-09-14T11:08:20;8;5;
46573;PMS5003;32299;53.366;-1.544;2022-09-14T11:11:01;6;5;
46573;PMS5003;32299;53.366;-1.544;2022-09-14T11:13:46;7;5;
46573;PMS5003;32299;53.366;-1.544;2022-09-14T11:16:40;6;5;
46573;PMS5003;32299;53.366;-1.544;2022-09-14T11:19:19;8;6;
46573;PMS5003;32299;53.366;-1.544;2022-09-14T11:21:55;9;6;
46573;PMS5003;32299;53.366;-1.544;2022-09-14T11:24:31;17;5;
46573;PMS5003;32299;53.366;-1.544;2022-09-14T11:27:05;5;5;
46573;PMS5003;32299;53.366;-1.544;2022-09-14T11:29:39;5;5;
46573;PMS5003;32299;53.366;-1.544;2022-09-14T11:32:12;8;5;
46573;PMS5003;32299;53.366;-1.544;2022-09-14T11:34:46;4;4;
46573;PMS5003;32299;53.366;-1.544;2022-09-14T11:37:18;9;8;
46573;PMS5003;32299;53.366;-1.544;2022-09-14T11:39:58;6;4;
46573;PMS5003;32299;53.366;-1.544;2022-09-14T11:42:32;7;6;
46573;PMS5003;32299;53.366;-1.544;2022-09-14T11:45:06;6;5;
46573;PMS5003;32299;53.366;-1.544;2022-09-14T11:47:43;7;5;
46573;PMS5003;32299;53.366;-1.544;2022-09-14T11:50:15;11;7;
46573;PMS5003;32299;53.366;-1.544;2022-09-14T11:52:46;5;3;
46573;PMS5003;32299;53.366;-1.544;2022-09-14T11:55:17;13;5;
46573;PMS5003;32299;53.366;-1.544;2022-09-14T11:57:45;9;5;
46573;PMS5003;32299;53.366;-1.544;2022-09-14T12:01:03;7;5;
46573;PMS5003;32299;53.366;-1.544;2022-09-14T12:04:03;7;6;
46573;PMS5003;32299;53.366;-1.544;2022-09-14T12:06:43;8;6;
46573;PMS5003;32299;53.366;-1.544;2022-09-14T12:09:37;6;6;
46573;PMS5003;32299;53.366;-1.544;2022-09-14T12:12:26;7;7;
46573;PMS5003;32299;53.366;-1.544;2022-09-14T12:14:58;7;6;
46573;PMS5003;32299;53.366;-1.544;2022-09-14T12:17:27;9;6;
46573;PMS5003;32299;53.366;-1.544;2022-09-14T12:19:58;4;4;
46573;PMS5003;32299;53.366;-1.544;2022-09-14T12:22:49;8;6;
46573;PMS5003;32299;53.366;-1.544;2022-09-14T12:25:17;5;5;
46573;PMS5003;32299;53.366;-1.544;2022-09-14T12:27:47;7;7;
46573;PMS5003;32299;53.366;-1.544;2022-09-14T12:31:29;8;7;
46573;PMS5003;32299;53.366;-1.544;2022-09-14T12:34:12;6;5;
46573;PMS5003;32299;53.366;-1.544;2022-09-14T12:37:26;8;7;
46573;PMS5003;32299;53.366;-1.544;2022-09-14T12:40:31;8;8;
46573;PMS5003;32299;53.366;-1.544;2022-09-14T12:44:27;5;5;
46573;PMS5003;32299;53.366;-1.544;2022-09-14T12:46:55;5;5;
46573;PMS5003;32299;53.366;-1.544;2022-09-14T12:49:24;7;6;
46573;PMS5003;32299;53.366;-1.544;2022-09-14T12:51:54;8;7;
46573;PMS5003;32299;53.366;-1.544;2022-09-14T12:54:27;16;6;
46573;PMS5003;32299;53.366;-1.544;2022-09-14T12:57:09;7;6;
46573;PMS5003;32299;53.366;-1.544;2022-09-14T12:59:51;7;5;
46573;PMS5003;32299;53.366;-1.544;2022-09-14T13:02:37;12;8;
46573;PMS5003;32299;53.366;-1.544;2022-09-14T13:05:19;9;7;
46573;PMS5003;32299;53.366;-1.544;2022-09-14T13:07:49;6;6;
46573;PMS5003;32299;53.366;-1.544;2022-09-14T13:10:19;5;5;
46573;PMS5003;32299;53.366;-1.544;2022-09-14T13:12:51;6;6;
46573;PMS5003;32299;53.366;-1.544;2022-09-14T13:15:19;7;7;
46573;PMS5003;32299;53.366;-1.544;2022-09-14T13:17:56;12;8;
46573;PMS5003;32299;53.366;-1.544;2022-09-14T13:20:25;6;6;
46573;PMS5003;32299;53.366;-1.544;2022-09-14T13:22:54;5;5;
46573;PMS5003;32299;53.366;-1.544;2022-09-14T13:25:25;6;6;
46573;PMS5003;32299;53.366;-1.544;2022-09-14T13:27:56;6;6;
46573;PMS5003;32299;53.366;-1.544;2022-09-14T13:30:26;5;5;
46573;PMS5003;32299;53.366;-1.544;2022-09-14T13:32:55;7;7;
46573;PMS5003;32299;53.366;-1.544;2022-09-14T13:35:26;7;6;
46573;PMS5003;32299;53.366;-1.544;2022-09-14T13:37:58;7;7;
46573;PMS5003;32299;53.366;-1.544;2022-09-14T13:40:32;7;6;
46573;PMS5003;32299;53.366;-1.544;2022-09-14T13:43:00;6;6;
46573;PMS5003;32299;53.366;-1.544;2022-09-14T13:45:28;6;5;
46573;PMS5003;32299;53.366;-1.544;2022-09-14T13:47:55;7;7;
46573;PMS5003;32299;53.366;-1.544;2022-09-14T13:50:23;6;6;
46573;PMS5003;32299;53.366;-1.544;2022-09-14T13:52:51;6;6;
46573;PMS5003;32299;53.366;-1.544;2022-09-14T13:55:21;11;8;
46573;PMS5003;32299;53.366;-1.544;2022-09-14T13:58:11;5;5;
46573;PMS5003;32299;53.366;-1.544;2022-09-14T14:00:49;5;5;
46573;PMS5003;32299;53.366;-1.544;2022-09-14T14:03:23;9;8;
46573;PMS5003;32299;53.366;-1.544;2022-09-14T14:05:53;8;5;
46573;PMS5003;32299;53.366;-1.544;2022-09-14T14:08:25;6;6;
46573;PMS5003;32299;53.366;-1.544;2022-09-14T14:10:55;5;5;
46573;PMS5003;32299;53.366;-1.544;2022-09-14T14:13:25;6;5;
46573;PMS5003;32299;53.366;-1.544;2022-09-14T14:15:52;18;5;
46573;PMS5003;32299;53.366;-1.544;2022-09-14T14:18:38;6;3;
46573;PMS5003;32299;53.366;-1.544;2022-09-14T14:21:14;7;6;
46573;PMS5003;32299;53.366;-1.544;2022-09-14T14:23:49;10;4;
46573;PMS5003;32299;53.366;-1.544;2022-09-14T14:26:20;7;5;
46573;PMS5003;32299;53.366;-1.544;2022-09-14T14:28:51;6;5;
46573;PMS5003;32299;53.366;-1.544;2022-09-14T14:31:20;5;5;
46573;PMS5003;32299;53.366;-1.544;2022-09-14T14:33:49;4;4;
46573;PMS5003;32299;53.366;-1.544;2022-09-14T14:36:17;8;7;
46573;PMS5003;32299;53.366;-1.544;2022-09-14T14:38:45;6;4;
46573;PMS5003;32299;53.366;-1.544;2022-09-14T14:41:13;7;7;
46573;PMS5003;32299;53.366;-1.544;2022-09-14T14:43:42;5;5;
46573;PMS5003;32299;53.366;-1.544;2022-09-14T14:46:11;5;5;
46573;PMS5003;32299;53.366;-1.544;2022-09-14T14:48:40;5;5;
46573;PMS5003;32299;53.366;-1.544;2022-09-14T14:51:10;7;6;
46573;PMS5003;32299;53.366;-1.544;2022-09-14T14:53:39;6;5;
46573;PMS5003;32299;53.366;-1.544;2022-09-14T14:56:08;7;6;
46573;PMS5003;32299;53.366;-1.544;2022-09-14T14:58:41;5;5;
46573;PMS5003;32299;53.366;-1.544;2022-09-14T15:01:09;6;6;
46573;PMS5003;32299;53.366;-1.544;2022-09-14T15:03:37;5;5;
46573;PMS5003;32299;53.366;-1.544;2022-09-14T15:06:12;8;4;
46573;PMS5003;32299;53.366;-1.544;2022-09-14T15:08:42;6;6;
46573;PMS5003;32299;53.366;-1.544;2022-09-14T15:11:13;5;5;
46573;PMS5003;32299;53.366;-1.544;2022-09-14T15:13:42;12;6;
46573;PMS5003;32299;53.366;-1.544;2022-09-14T15:16:09;6;6;
46573;PMS5003;32299;53.366;-1.544;2022-09-14T15:18:36;7;4;
46573;PMS5003;32299;53.366;-1.544;2022-09-14T15:21:04;6;6;
46573;PMS5003;32299;53.366;-1.544;2022-09-14T15:23:37;7;6;
46573;PMS5003;32299;53.366;-1.544;2022-09-14T15:26:04;6;5;
46573;PMS5003;32299;53.366;-1.544;2022-09-14T15:28:31;5;4;
46573;PMS5003;32299;53.366;-1.544;2022-09-14T15:30:58;5;5;
46573;PMS5003;32299;53.366;-1.544;2022-09-14T15:33:25;6;6;
46573;PMS5003;32299;53.366;-1.544;2022-09-14T15:35:54;6;5;
46573;PMS5003;32299;53.366;-1.544;2022-09-14T15:38:21;3;3;
46573;PMS5003;32299;53.366;-1.544;2022-09-14T15:40:49;7;7;
46573;PMS5003;32299;53.366;-1.544;2022-09-14T15:43:17;4;3;
46573;PMS5003;32299;53.366;-1.544;2022-09-14T15:45:44;7;4;
46573;PMS5003;32299;53.366;-1.544;2022-09-14T15:48:12;5;4;
46573;PMS5003;32299;53.366;-1.544;2022-09-14T15:50:45;4;4;
46573;PMS5003;32299;53.366;-1.544;2022-09-14T15:53:14;5;5;
46573;PMS5003;32299;53.366;-1.544;2022-09-14T15:55:42;6;4;
46573;PMS5003;32299;53.366;-1.544;2022-09-14T15:58:10;9;5;
46573;PMS5003;32299;53.366;-1.544;2022-09-14T16:00:40;7;6;
46573;PMS5003;32299;53.366;-1.544;2022-09-14T16:03:09;6;5;
46573;PMS5003;32299;53.366;-1.544;2022-09-14T16:05:36;3;2;
46573;PMS5003;32299;53.366;-1.544;2022-09-14T16:08:03;8;7;
46573;PMS5003;32299;53.366;-1.544;2022-09-14T16:10:31;9;6;
46573;PMS5003;32299;53.366;-1.544;2022-09-14T16:10:32;9;6;
46573;PMS5003;32299;53.366;-1.544;2022-09-14T16:13:00;6;4;
46573;PMS5003;32299;53.366;-1.544;2022-09-14T16:15:27;9;5;
46573;PMS5003;32299;53.366;-1.544;2022-09-14T16:17:54;7;6;
46573;PMS5003;32299;53.366;-1.544;2022-09-14T16:20:22;8;8;
46573;PMS5003;32299;53.366;-1.544;2022-09-14T16:22:49;6;6;
46573;PMS5003;32299;53.366;-1.544;2022-09-14T16:25:17;7;6;
46573;PMS5003;32299;53.366;-1.544;2022-09-14T16:27:44;9;7;
46573;PMS5003;32299;53.366;-1.544;2022-09-14T16:30:11;9;8;
46573;PMS5003;32299;53.366;-1.544;2022-09-14T16:32:38;8;7;
46573;PMS5003;32299;53.366;-1.544;2022-09-14T16:35:06;7;7;
46573;PMS5003;32299;53.366;-1.544;2022-09-14T16:37:33;7;6;
46573;PMS5003;32299;53.366;-1.544;2022-09-14T16:40:00;6;4;
46573;PMS5003;32299;53.366;-1.544;2022-09-14T16:42:28;6;6;
46573;PMS5003;32299;53.366;-1.544;2022-09-14T16:44:55;6;6;
46573;PMS5003;32299;53.366;-1.544;2022-09-14T16:47:22;7;7;